Terminal Aerodrome Forecast
Issued by NWS

Home | Current Version | Previous Version | Text Only | Print | Product List | Glossary On
Versions: 1 2 3 4 5 6 7 8 9 10 11 12 13 14 15
000
FTUS46 KSTO 021100
TAFSCK
TAF
KSCK 021124Z 0212/0312 14005KT P6SM BKN080 BKN200
      TEMPO 0214/0217 4SM BR
     FM022100 17009KT P6SM BKN050
      TEMPO 0221/0301 6SM -SHRA BKN040
     FM030400 VRB04KT P6SM SCT050=

USA.gov is the U.S. government's official web portal to all federal, state and local government web resources and services.